Time;durP1;ratioP1;P1;durP2;ratioP2;P2;SDS_P1;SDS_P2;PMS_P1;PMS_P2;Temp;Humidity;BMP_temperature;BMP_pressure;BME280_temperature;BME280_humidity;BME280_pressure;Samples;Min_cycle;Max_cycle;Signal;HPM_P1;HPM_P2
2022/10/21 00:01:54;;;;;;;;;;;;;;;;;;10458426;28;20055;-78
2022/10/21 00:06:55;;;;;;;;;;;;;;;;;;10474842;28;20018;-77
2022/10/21 00:11:58;;;;;;;;;;;;;;;;;;10473288;28;19920;-77
2022/10/21 00:16:59;;;;;;;;;;;;;;;;;;10472544;28;19917;-77
2022/10/21 00:21:59;;;;;;;;;;;;;;;;;;10481363;28;20370;-77
2022/10/21 00:27:01;;;;;;;;;;;;;;;;;;10470658;28;19943;-79
2022/10/21 00:32:01;;;;;;;;;;;;;;;;;;10502083;28;19920;-79
2022/10/21 00:37:02;;;;;;;;;;;;;;;;;;10517981;28;19916;-75
2022/10/21 00:42:02;;;;;;;;;;;;;;;;;;10498916;28;19947;-77
2022/10/21 00:47:02;;;;;;;;;;;;;;;;;;10484980;28;19928;-78
2022/10/21 00:52:03;;;;;;;;;;;;;;;;;;10487070;28;19924;-79
2022/10/21 00:57:03;;;;;;;;;;;;;;;;;;10479204;28;20408;-77
2022/10/21 01:02:05;;;;;;;;;;;;;;;;;;10477729;28;19927;-77
2022/10/21 01:07:07;;;;;;;;;;;;;;;;;;10494294;28;19925;-78
2022/10/21 01:12:07;;;;;;;;;;;;;;;;;;10479557;28;20287;-76
2022/10/21 01:17:08;;;;;;;;;;;;;;;;;;10500269;28;19917;-77
2022/10/21 01:22:09;;;;;;;;;;;;;;;;;;10524461;28;19916;-78
2022/10/21 01:27:11;;;;;;;;;;;;;;;;;;10505431;28;20379;-78
2022/10/21 01:32:11;;;;;;;;;;;;;;;;;;10476239;28;19988;-78
2022/10/21 01:37:11;;;;;;;;;;;;;;;;;;10471219;28;19920;-78
2022/10/21 01:42:13;;;;;;;;;;;;;;;;;;10469505;28;20029;-77
2022/10/21 01:47:13;;;;;;;;;;;;;;;;;;10469446;28;20042;-79
2022/10/21 01:52:13;;;;;;;;;;;;;;;;;;10464478;28;19920;-78
2022/10/21 01:57:15;;;;;;;;;;;;;;;;;;10476708;28;19971;-77
2022/10/21 02:02:16;;;;;;;;;;;;;;;;;;10456810;28;19924;-77
2022/10/21 02:07:17;;;;;;;;;;;;;;;;;;10463413;28;19920;-77
2022/10/21 02:12:17;;;;;;;;;;;;;;;;;;10463916;28;19917;-76
2022/10/21 02:17:18;;;;;;;;;;;;;;;;;;10459047;28;19916;-76
2022/10/21 02:22:19;;;;;;;;;;;;;;;;;;10469095;28;19932;-77
2022/10/21 02:27:19;;;;;;;;;;;;;;;;;;10482032;28;19938;-76
2022/10/21 02:32:19;;;;;;;;;;;;;;;;;;10466873;28;19925;-76
2022/10/21 02:37:19;;;;;;;;;;;;;;;;;;10463796;28;20016;-76
2022/10/21 02:42:20;;;;;;;;;;;;;;;;;;10473511;28;19925;-76
2022/10/21 02:47:20;;;;;;;;;;;;;;;;;;10475476;28;19982;-76
2022/10/21 02:52:20;;;;;;;;;;;;;;;;;;10460526;28;19928;-77
2022/10/21 02:57:20;;;;;;;;;;;;;;;;;;10471139;28;19921;-79
2022/10/21 03:02:22;;;;;;;;;;;;;;;;;;10466738;28;19921;-78
2022/10/21 03:07:22;;;;;;;;;;;;;;;;;;10476626;28;20308;-77
2022/10/21 03:12:22;;;;;;;;;;;;;;;;;;10461312;28;19920;-77
2022/10/21 03:17:22;;;;;;;;;;;;;;;;;;10472187;28;19924;-77
2022/10/21 03:22:23;;;;;;;;;;;;;;;;;;10470125;28;19921;-77
2022/10/21 03:27:24;;;;;;;;;;;;;;;;;;10482317;28;19925;-76
2022/10/21 03:32:24;;;;;;;;;;;;;;;;;;10462736;28;19916;-76
2022/10/21 03:37:24;;;;;;;;;;;;;;;;;;10478172;28;19996;-76
2022/10/21 03:42:25;;;;;;;;;;;;;;;;;;10482379;28;19927;-77
2022/10/21 03:47:25;;;;;;;;;;;;;;;;;;10488152;28;19964;-76
2022/10/21 03:52:25;;;;;;;;;;;;;;;;;;10473082;28;19917;-76
2022/10/21 03:57:26;;;;;;;;;;;;;;;;;;10473546;28;19948;-77
2022/10/21 04:02:26;;;;;;;;;;;;;;;;;;10465712;28;19928;-77
2022/10/21 04:07:27;;;;;;;;;;;;;;;;;;10485417;28;20019;-78
2022/10/21 04:12:27;;;;;;;;;;;;;;;;;;10507021;28;19944;-76
2022/10/21 04:17:27;;;;;;;;;;;;;;;;;;10484641;28;19917;-77
2022/10/21 04:22:28;;;;;;;;;;;;;;;;;;10467355;28;19925;-77
2022/10/21 04:27:28;;;;;;;;;;;;;;;;;;10468673;28;19936;-78
2022/10/21 04:32:28;;;;;;;;;;;;;;;;;;10469114;28;19925;-75
2022/10/21 04:37:28;;;;;;;;;;;;;;;;;;10467764;28;20028;-75
2022/10/21 04:42:29;;;;;;;;;;;;;;;;;;10473505;28;19925;-76
2022/10/21 04:47:29;;;;;;;;;;;;;;;;;;10475904;28;19940;-76
2022/10/21 04:52:29;;;;;;;;;;;;;;;;;;10463395;28;20339;-75
2022/10/21 04:57:29;;;;;;;;;;;;;;;;;;10467869;28;20609;-78
2022/10/21 05:02:31;;;;;;;;;;;;;;;;;;10475879;28;19921;-76
2022/10/21 05:07:31;;;;;;;;;;;;;;;;;;10474832;28;19932;-77
2022/10/21 05:12:31;;;;;;;;;;;;;;;;;;10470196;28;19922;-80
2022/10/21 05:17:31;;;;;;;;;;;;;;;;;;10468526;28;19921;-75
2022/10/21 05:22:31;;;;;;;;;;;;;;;;;;10468622;28;19921;-74
2022/10/21 05:27:32;;;;;;;;;;;;;;;;;;10454159;28;19925;-75
2022/10/21 05:32:32;;;;;;;;;;;;;;;;;;10477473;28;19940;-75
2022/10/21 05:37:32;;;;;;;;;;;;;;;;;;10468571;28;20364;-74
2022/10/21 05:42:32;;;;;;;;;;;;;;;;;;10476602;28;20435;-74
2022/10/21 05:47:33;;;;;;;;;;;;;;;;;;10474881;28;19932;-74
2022/10/21 05:52:33;;;;;;;;;;;;;;;;;;10457849;28;20086;-74
2022/10/21 05:57:33;;;;;;;;;;;;;;;;;;10472639;28;19916;-77
2022/10/21 06:02:34;;;;;;;;;;;;;;;;;;10454004;28;19921;-74
2022/10/21 06:07:34;;;;;;;;;;;;;;;;;;10476374;28;19982;-74
2022/10/21 06:12:34;;;;;;;;;;;;;;;;;;10473036;28;20323;-73
2022/10/21 06:17:34;;;;;;;;;;;;;;;;;;10461958;28;20623;-73
2022/10/21 06:22:35;;;;;;;;;;;;;;;;;;10468957;28;20342;-74
2022/10/21 06:27:35;;;;;;;;;;;;;;;;;;10455586;28;19929;-76
2022/10/21 06:32:35;;;;;;;;;;;;;;;;;;10478356;28;20019;-75
2022/10/21 06:37:37;;;;;;;;;;;;;;;;;;10460397;28;20203;-75
2022/10/21 06:42:37;;;;;;;;;;;;;;;;;;10468427;28;19920;-74
2022/10/21 06:47:38;;;;;;;;;;;;;;;;;;10474777;28;19936;-76
2022/10/21 06:52:38;;;;;;;;;;;;;;;;;;10460934;28;20020;-73
2022/10/21 06:57:39;;;;;;;;;;;;;;;;;;10476046;28;19916;-75
2022/10/21 07:02:39;;;;;;;;;;;;;;;;;;10469191;28;19920;-74
2022/10/21 07:07:39;;;;;;;;;;;;;;;;;;10474125;28;19929;-74
2022/10/21 07:12:39;;;;;;;;;;;;;;;;;;10474164;28;20378;-73
2022/10/21 07:17:40;;;;;;;;;;;;;;;;;;10468260;28;19921;-74
2022/10/21 07:22:40;;;;;;;;;;;;;;;;;;10472340;28;19989;-74
2022/10/21 07:27:40;;;;;;;;;;;;;;;;;;10470742;28;19971;-74
2022/10/21 07:32:40;;;;;;;;;;;;;;;;;;10473375;28;19925;-73
2022/10/21 07:37:41;;;;;;;;;;;;;;;;;;10474134;28;19921;-75
2022/10/21 07:42:41;;;;;;;;;;;;;;;;;;10465830;28;19921;-75
2022/10/21 07:47:42;;;;;;;;;;;;;;;;;;10471196;28;20023;-73
2022/10/21 07:52:45;;;;;;;;;;;;;;;;;;10463454;28;19921;-74
2022/10/21 07:57:45;;;;;;;;;;;;;;;;;;10487016;28;19929;-74
2022/10/21 08:02:46;;;;;;;;;;;;;;;;;;10476413;28;19924;-77
2022/10/21 08:07:46;;;;;;;;;;;;;;;;;;10485840;28;20603;-75
2022/10/21 08:12:46;;;;;;;;;;;;;;;;;;10478741;28;20042;-74
2022/10/21 08:17:47;;;;;;;;;;;;;;;;;;10466519;28;19921;-74
2022/10/21 08:22:47;;;;;;;;;;;;;;;;;;10479222;28;19917;-73
2022/10/21 08:27:47;;;;;;;;;;;;;;;;;;10464468;28;19932;-75
2022/10/21 08:32:47;;;;;;;;;;;;;;;;;;10475333;28;19921;-73
2022/10/21 08:37:48;;;;;;;;;;;;;;;;;;10486277;28;19928;-74
2022/10/21 08:42:48;;;;;;;;;;;;;;;;;;10472914;28;19932;-74
2022/10/21 08:47:49;;;;;;;;;;;;;;;;;;10472048;28;19933;-73
2022/10/21 08:52:50;;;;;;;;;;;;;;;;;;10474480;28;19955;-75
2022/10/21 08:57:52;;;;;;;;;;;;;;;;;;10480336;28;20007;-74
2022/10/21 09:02:52;;;;;;;;;;;;;;;;;;10481024;28;20402;-75
2022/10/21 09:07:52;;;;;;;;;;;;;;;;;;10475016;28;19936;-74
2022/10/21 09:12:53;;;;;;;;;;;;;;;;;;10481481;28;19916;-75
2022/10/21 09:17:53;;;;;;;;;;;;;;;;;;10469959;28;19920;-74
2022/10/21 09:22:53;;;;;;;;;;;;;;;;;;10475228;28;19928;-74
2022/10/21 09:27:54;;;;;;;;;;;;;;;;;;10464967;28;19929;-75
2022/10/21 09:32:54;;;;;;;;;;;;;;;;;;10459151;28;20592;-74
2022/10/21 09:37:56;;;;;;;;;;;;;;;;;;10471896;28;19924;-74
2022/10/21 09:42:57;;;;;;;;;;;;;;;;;;10459050;28;19979;-74
2022/10/21 09:47:58;;;;;;;;;;;;;;;;;;10473527;28;19929;-75
2022/10/21 09:52:58;;;;;;;;;;;;;;;;;;10469402;28;19924;-76
2022/10/21 09:57:59;;;;;;;;;;;;;;;;;;10472378;28;19974;-75
2022/10/21 10:02:59;;;;;;;;;;;;;;;;;;10464459;28;19974;-76
2022/10/21 10:07:59;;;;;;;;;;;;;;;;;;10458213;28;19924;-75
2022/10/21 10:13:00;;;;;;;;;;;;;;;;;;10465865;28;20011;-76
2022/10/21 10:18:00;;;;;;;;;;;;;;;;;;10459368;28;19927;-77
2022/10/21 10:23:00;;;;;;;;;;;;;;;;;;10472217;28;20023;-77
2022/10/21 10:28:00;;;;;;;;;;;;;;;;;;10457488;28;20043;-75
2022/10/21 10:33:01;;;;;;;;;;;;;;;;;;10465530;28;20058;-75
2022/10/21 10:38:01;;;;;;;;;;;;;;;;;;10479757;28;19921;-75
2022/10/21 10:43:01;;;;;;;;;;;;;;;;;;10470514;28;20055;-74
2022/10/21 10:48:02;;;;;;;;;;;;;;;;;;10467336;28;19924;-74
2022/10/21 10:53:03;;;;;;;;;;;;;;;;;;10469680;28;19942;-75
2022/10/21 10:58:03;;;;;;;;;;;;;;;;;;10467103;28;20001;-76
2022/10/21 11:03:04;;;;;;;;;;;;;;;;;;10472410;28;19917;-75
2022/10/21 11:08:04;;;;;;;;;;;;;;;;;;10466682;28;20007;-76
2022/10/21 11:13:04;;;;;;;;;;;;;;;;;;10463204;28;20016;-75
2022/10/21 11:18:05;;;;;;;;;;;;;;;;;;10468335;28;20260;-76
2022/10/21 11:23:05;;;;;;;;;;;;;;;;;;10472096;28;19921;-75
2022/10/21 11:28:05;;;;;;;;;;;;;;;;;;10456796;28;19936;-75
2022/10/21 11:33:05;;;;;;;;;;;;;;;;;;10473829;28;19925;-75
2022/10/21 11:38:06;;;;;;;;;;;;;;;;;;10455679;28;19921;-76
2022/10/21 11:43:06;;;;;;;;;;;;;;;;;;10468993;28;19927;-75
2022/10/21 11:48:06;;;;;;;;;;;;;;;;;;10468875;28;19989;-75
2022/10/21 11:53:13;;;;;;;;;;;;;;;;;;10454215;28;20391;-75
2022/10/21 11:58:13;;;;;;;;;;;;;;;;;;10471366;28;19936;-74
2022/10/21 12:03:13;;;;;;;;;;;;;;;;;;10481660;28;20366;-75
2022/10/21 12:08:15;;;;;;;;;;;;;;;;;;10464439;28;19933;-75
2022/10/21 12:13:15;;;;;;;;;;;;;;;;;;10477727;28;19924;-75
2022/10/21 12:18:15;;;;;;;;;;;;;;;;;;10457271;28;19928;-75
2022/10/21 12:23:16;;;;;;;;;;;;;;;;;;10474232;28;19928;-80
2022/10/21 12:28:17;;;;;;;;;;;;;;;;;;10480909;28;19928;-77
2022/10/21 12:33:19;;;;;;;;;;;;;;;;;;10475571;28;19999;-74
2022/10/21 12:38:21;;;;;;;;;;;;;;;;;;10516209;28;19934;-83
2022/10/21 12:43:22;;;;;;;;;;;;;;;;;;10567909;28;20160;-77
2022/10/21 12:48:24;;;;;;;;;;;;;;;;;;10512606;28;20031;-78
2022/10/21 12:53:24;;;;;;;;;;;;;;;;;;10505746;28;19948;-75
2022/10/21 12:58:26;;;;;;;;;;;;;;;;;;10512989;28;19942;-79
2022/10/21 13:03:26;;;;;;;;;;;;;;;;;;10489447;28;19924;-79
2022/10/21 13:08:27;;;;;;;;;;;;;;;;;;10507950;28;19969;-78
2022/10/21 13:13:27;;;;;;;;;;;;;;;;;;10508699;28;19916;-76
2022/10/21 13:18:28;;;;;;;;;;;;;;;;;;10512056;28;20033;-75
2022/10/21 13:23:28;;;;;;;;;;;;;;;;;;10508717;28;19924;-76
2022/10/21 13:28:28;;;;;;;;;;;;;;;;;;10502973;28;19933;-77
2022/10/21 13:33:28;;;;;;;;;;;;;;;;;;10508927;28;19924;-76
2022/10/21 13:38:29;;;;;;;;;;;;;;;;;;10519979;28;19971;-79
2022/10/21 13:43:29;;;;;;;;;;;;;;;;;;10502174;28;20015;-78
2022/10/21 13:48:29;;;;;;;;;;;;;;;;;;10507743;28;19928;-78
2022/10/21 13:53:34;;;;;;;;;;;;;;;;;;10498028;28;19927;-78
2022/10/21 13:58:37;;;;;;;;;;;;;;;;;;10514251;28;20700;-77
2022/10/21 14:03:38;;;;;;;;;;;;;;;;;;10499249;28;19931;-77
2022/10/21 14:08:38;;;;;;;;;;;;;;;;;;10510697;28;19928;-77
2022/10/21 14:13:38;;;;;;;;;;;;;;;;;;10505846;28;20276;-78
2022/10/21 14:18:38;;;;;;;;;;;;;;;;;;10504855;28;19965;-78
2022/10/21 14:23:39;;;;;;;;;;;;;;;;;;10512481;28;20292;-80
2022/10/21 14:28:39;;;;;;;;;;;;;;;;;;10507908;28;19997;-77
2022/10/21 14:33:42;;;;;;;;;;;;;;;;;;10525644;28;19942;-77
2022/10/21 14:38:43;;;;;;;;;;;;;;;;;;10525378;28;20025;-78
2022/10/21 14:43:43;;;;;;;;;;;;;;;;;;10517615;28;20288;-75
2022/10/21 14:48:44;;;;;;;;;;;;;;;;;;10514661;28;19929;-74
2022/10/21 14:53:44;;;;;;;;;;;;;;;;;;10507601;28;19947;-74
2022/10/21 14:58:45;;;;;;;;;;;;;;;;;;10513406;28;20023;-76
2022/10/21 15:03:46;;;;;;;;;;;;;;;;;;10509454;28;19924;-77
2022/10/21 15:08:46;;;;;;;;;;;;;;;;;;10507914;28;19939;-77
2022/10/21 15:13:46;;;;;;;;;;;;;;;;;;10511845;28;19932;-75
2022/10/21 15:18:47;;;;;;;;;;;;;;;;;;10500158;28;19926;-78
2022/10/21 15:23:48;;;;;;;;;;;;;;;;;;10510354;28;19932;-75
2022/10/21 15:28:48;;;;;;;;;;;;;;;;;;10530009;28;19933;-78
2022/10/21 15:33:48;;;;;;;;;;;;;;;;;;10512575;28;19986;-78
2022/10/21 15:38:49;;;;;;;;;;;;;;;;;;10519043;28;19931;-78
2022/10/21 15:43:49;;;;;;;;;;;;;;;;;;10509118;28;19920;-78
2022/10/21 15:48:50;;;;;;;;;;;;;;;;;;10515447;28;19935;-78
2022/10/21 15:53:50;;;;;;;;;;;;;;;;;;10519022;28;20023;-78
2022/10/21 15:58:50;;;;;;;;;;;;;;;;;;10515025;28;19950;-76
2022/10/21 16:03:52;;;;;;;;;;;;;;;;;;10516218;28;19928;-82
2022/10/21 16:08:52;;;;;;;;;;;;;;;;;;10499343;28;20032;-78
2022/10/21 16:13:52;;;;;;;;;;;;;;;;;;10519056;28;19932;-79
2022/10/21 16:18:53;;;;;;;;;;;;;;;;;;10520867;28;19920;-77
2022/10/21 16:23:55;;;;;;;;;;;;;;;;;;10515193;28;19944;-78
2022/10/21 16:28:57;;;;;;;;;;;;;;;;;;10523734;28;20375;-77
2022/10/21 16:33:57;;;;;;;;;;;;;;;;;;10520474;28;19928;-77
2022/10/21 16:38:57;;;;;;;;;;;;;;;;;;10523925;28;19928;-78
2022/10/21 16:43:58;;;;;;;;;;;;;;;;;;10528392;28;20302;-77
2022/10/21 16:48:58;;;;;;;;;;;;;;;;;;10525946;28;19927;-77
2022/10/21 16:53:58;;;;;;;;;;;;;;;;;;10524071;28;20322;-80
2022/10/21 16:58:59;;;;;;;;;;;;;;;;;;10527140;28;19924;-78
2022/10/21 17:03:59;;;;;;;;;;;;;;;;;;10523766;28;19920;-78
2022/10/21 17:09:00;;;;;;;;;;;;;;;;;;10524541;28;20481;-78
2022/10/21 17:14:01;;;;;;;;;;;;;;;;;;10538343;28;19920;-81
2022/10/21 17:19:01;;;;;;;;;;;;;;;;;;10540295;28;19920;-79
2022/10/21 17:24:04;;;;;;;;;;;;;;;;;;10527500;28;20046;-79
2022/10/21 17:29:05;;;;;;;;;;;;;;;;;;10532228;28;20384;-81
2022/10/21 17:34:06;;;;;;;;;;;;;;;;;;10512251;28;20366;-77
2022/10/21 17:39:07;;;;;;;;;;;;;;;;;;10525896;28;20366;-80
2022/10/21 17:44:07;;;;;;;;;;;;;;;;;;10518280;28;19927;-77
2022/10/21 17:49:07;;;;;;;;;;;;;;;;;;10523770;28;19986;-77
2022/10/21 17:54:11;;;;;;;;;;;;;;;;;;10517178;28;19920;-76
2022/10/21 17:59:11;;;;;;;;;;;;;;;;;;10521171;28;20033;-80
2022/10/21 18:04:11;;;;;;;;;;;;;;;;;;10504543;28;19920;-77
2022/10/21 18:09:12;;;;;;;;;;;;;;;;;;10525011;28;20096;-77
2022/10/21 18:14:13;;;;;;;;;;;;;;;;;;10521290;28;19916;-76
2022/10/21 18:19:14;;;;;;;;;;;;;;;;;;10517551;28;19931;-79
2022/10/21 18:24:14;;;;;;;;;;;;;;;;;;10512165;28;19920;-76
2022/10/21 18:29:17;;;;;;;;;;;;;;;;;;10507696;28;20053;-76
2022/10/21 18:34:17;;;;;;;;;;;;;;;;;;10513669;28;20343;-76
2022/10/21 18:39:17;;;;;;;;;;;;;;;;;;10512070;28;19925;-75
2022/10/21 18:44:18;;;;;;;;;;;;;;;;;;10513666;28;19924;-76
2022/10/21 18:49:18;;;;;;;;;;;;;;;;;;10502601;28;20018;-76
2022/10/21 18:54:19;;;;;;;;;;;;;;;;;;10493536;28;19927;-76
2022/10/21 18:59:19;;;;;;;;;;;;;;;;;;10505344;28;20409;-74
2022/10/21 19:04:19;;;;;;;;;;;;;;;;;;10495318;28;20382;-76
2022/10/21 19:09:19;;;;;;;;;;;;;;;;;;10513375;28;20610;-77
2022/10/21 19:14:21;;;;;;;;;;;;;;;;;;10516888;28;20034;-78
2022/10/21 19:19:21;;;;;;;;;;;;;;;;;;10503261;28;19916;-75
2022/10/21 19:24:22;;;;;;;;;;;;;;;;;;10522685;28;20278;-76
2022/10/21 19:29:24;;;;;;;;;;;;;;;;;;10512501;28;20879;-76
2022/10/21 19:34:27;;;;;;;;;;;;;;;;;;10515531;28;19946;-76
2022/10/21 19:39:27;;;;;;;;;;;;;;;;;;10506449;28;19928;-75
2022/10/21 19:44:27;;;;;;;;;;;;;;;;;;10520028;28;20370;-77
2022/10/21 19:49:28;;;;;;;;;;;;;;;;;;10515693;28;20402;-78
2022/10/21 19:54:28;;;;;;;;;;;;;;;;;;10523240;28;19928;-78
2022/10/21 19:59:29;;;;;;;;;;;;;;;;;;10530190;28;19925;-78
2022/10/21 20:04:30;;;;;;;;;;;;;;;;;;10509322;28;19927;-78
2022/10/21 20:09:30;;;;;;;;;;;;;;;;;;10526280;28;19928;-79
2022/10/21 20:14:30;;;;;;;;;;;;;;;;;;10513020;28;19920;-79
2022/10/21 20:19:30;;;;;;;;;;;;;;;;;;10518625;28;19920;-78
2022/10/21 20:24:30;;;;;;;;;;;;;;;;;;10520048;28;19923;-77
2022/10/21 20:29:32;;;;;;;;;;;;;;;;;;10520103;28;19928;-78
2022/10/21 20:34:36;;;;;;;;;;;;;;;;;;10525095;28;19928;-78
2022/10/21 20:39:36;;;;;;;;;;;;;;;;;;10523960;28;19930;-76
2022/10/21 20:44:37;;;;;;;;;;;;;;;;;;10511562;28;20004;-78
2022/10/21 20:49:37;;;;;;;;;;;;;;;;;;10520351;28;19943;-79
2022/10/21 20:54:37;;;;;;;;;;;;;;;;;;10502277;28;19917;-79
2022/10/21 20:59:37;;;;;;;;;;;;;;;;;;10517493;28;19932;-78
2022/10/21 21:04:38;;;;;;;;;;;;;;;;;;10520175;28;19943;-77
2022/10/21 21:09:38;;;;;;;;;;;;;;;;;;10507543;28;19935;-78
2022/10/21 21:14:38;;;;;;;;;;;;;;;;;;10512921;28;20053;-78
2022/10/21 21:19:38;;;;;;;;;;;;;;;;;;10498603;28;19925;-77
2022/10/21 21:24:39;;;;;;;;;;;;;;;;;;10520510;28;19981;-77
2022/10/21 21:29:39;;;;;;;;;;;;;;;;;;10502973;28;19986;-78
2022/10/21 21:34:41;;;;;;;;;;;;;;;;;;10518594;28;19927;-77
2022/10/21 21:39:41;;;;;;;;;;;;;;;;;;10522846;28;19924;-79
2022/10/21 21:44:41;;;;;;;;;;;;;;;;;;10500257;28;19916;-78
2022/10/21 21:49:42;;;;;;;;;;;;;;;;;;10526739;28;19932;-78
2022/10/21 21:54:43;;;;;;;;;;;;;;;;;;10518301;28;19916;-77
2022/10/21 21:59:43;;;;;;;;;;;;;;;;;;10524424;28;20020;-76
2022/10/21 22:04:44;;;;;;;;;;;;;;;;;;10518004;28;20458;-77
2022/10/21 22:09:44;;;;;;;;;;;;;;;;;;10516536;28;20027;-77
2022/10/21 22:14:46;;;;;;;;;;;;;;;;;;10504112;28;19920;-79
2022/10/21 22:19:46;;;;;;;;;;;;;;;;;;10494950;28;19920;-77
2022/10/21 22:24:46;;;;;;;;;;;;;;;;;;10509983;28;19928;-79
2022/10/21 22:29:47;;;;;;;;;;;;;;;;;;10496831;28;20372;-77
2022/10/21 22:34:47;;;;;;;;;;;;;;;;;;10507818;28;19976;-76
2022/10/21 22:39:47;;;;;;;;;;;;;;;;;;10508864;28;20639;-77
2022/10/21 22:44:48;;;;;;;;;;;;;;;;;;10523466;28;19919;-77
2022/10/21 22:49:48;;;;;;;;;;;;;;;;;;10511777;28;20062;-78
2022/10/21 22:54:48;;;;;;;;;;;;;;;;;;10511604;28;19927;-76
2022/10/21 22:59:48;;;;;;;;;;;;;;;;;;10517600;28;19924;-79
2022/10/21 23:04:49;;;;;;;;;;;;;;;;;;10518543;28;20664;-79
2022/10/21 23:09:50;;;;;;;;;;;;;;;;;;10526790;28;19936;-77
2022/10/21 23:14:51;;;;;;;;;;;;;;;;;;10514410;28;19920;-78
2022/10/21 23:19:51;;;;;;;;;;;;;;;;;;10510179;28;19920;-78
2022/10/21 23:24:52;;;;;;;;;;;;;;;;;;10518306;28;20390;-78
2022/10/21 23:29:52;;;;;;;;;;;;;;;;;;10510979;28;19928;-78
2022/10/21 23:34:52;;;;;;;;;;;;;;;;;;10502227;28;19930;-77
2022/10/21 23:39:52;;;;;;;;;;;;;;;;;;10518368;28;19931;-75
2022/10/21 23:44:53;;;;;;;;;;;;;;;;;;10495657;28;20006;-78
2022/10/21 23:49:53;;;;;;;;;;;;;;;;;;10511925;28;19928;-77
2022/10/21 23:54:53;;;;;;;;;;;;;;;;;;10515011;28;19924;-77
2022/10/21 23:59:55;;;;;;;;;;;;;;;;;;10514659;28;19923;-78
